sensor_id;sensor_type;location;lat;lon;timestamp;temperature;humidity
61807;DHT22;47726;52.766;6.606;2022-08-25T00:00:46;23.10;95.00
61807;DHT22;47726;52.766;6.606;2022-08-25T00:03:12;23.10;94.90
61807;DHT22;47726;52.766;6.606;2022-08-25T00:05:38;23.00;94.70
61807;DHT22;47726;52.766;6.606;2022-08-25T00:08:04;23.00;94.70
61807;DHT22;47726;52.766;6.606;2022-08-25T00:10:32;23.00;94.70
61807;DHT22;47726;52.766;6.606;2022-08-25T00:12:59;22.90;94.70
61807;DHT22;47726;52.766;6.606;2022-08-25T00:15:26;22.90;94.50
61807;DHT22;47726;52.766;6.606;2022-08-25T00:17:51;22.90;94.40
61807;DHT22;47726;52.766;6.606;2022-08-25T00:20:17;22.90;94.40
61807;DHT22;47726;52.766;6.606;2022-08-25T00:22:43;22.80;94.30
61807;DHT22;47726;52.766;6.606;2022-08-25T00:25:10;22.70;94.20
61807;DHT22;47726;52.766;6.606;2022-08-25T00:27:35;22.70;94.10
61807;DHT22;47726;52.766;6.606;2022-08-25T00:30:02;22.70;94.10
61807;DHT22;47726;52.766;6.606;2022-08-25T00:32:28;22.70;93.90
61807;DHT22;47726;52.766;6.606;2022-08-25T00:34:53;22.70;93.80
61807;DHT22;47726;52.766;6.606;2022-08-25T00:37:19;22.70;93.70
61807;DHT22;47726;52.766;6.606;2022-08-25T00:39:44;22.60;93.60
61807;DHT22;47726;52.766;6.606;2022-08-25T00:42:11;22.60;93.60
61807;DHT22;47726;52.766;6.606;2022-08-25T00:44:37;22.60;93.60
61807;DHT22;47726;52.766;6.606;2022-08-25T00:47:03;22.60;93.80
61807;DHT22;47726;52.766;6.606;2022-08-25T00:49:36;22.50;93.30
61807;DHT22;47726;52.766;6.606;2022-08-25T00:52:17;22.50;93.10
61807;DHT22;47726;52.766;6.606;2022-08-25T00:57:40;22.50;93.00
61807;DHT22;47726;52.766;6.606;2022-08-25T01:00:16;22.40;93.00
61807;DHT22;47726;52.766;6.606;2022-08-25T01:02:43;22.40;92.90
61807;DHT22;47726;52.766;6.606;2022-08-25T01:05:09;22.40;92.80
61807;DHT22;47726;52.766;6.606;2022-08-25T01:07:35;22.30;92.80
61807;DHT22;47726;52.766;6.606;2022-08-25T01:10:03;22.30;92.80
61807;DHT22;47726;52.766;6.606;2022-08-25T01:12:28;22.30;92.80
61807;DHT22;47726;52.766;6.606;2022-08-25T01:14:55;22.30;92.70
61807;DHT22;47726;52.766;6.606;2022-08-25T01:17:21;22.20;92.60
61807;DHT22;47726;52.766;6.606;2022-08-25T01:19:47;22.20;92.60
61807;DHT22;47726;52.766;6.606;2022-08-25T01:22:13;22.20;92.60
61807;DHT22;47726;52.766;6.606;2022-08-25T01:24:58;22.20;92.60
61807;DHT22;47726;52.766;6.606;2022-08-25T01:27:25;22.10;92.50
61807;DHT22;47726;52.766;6.606;2022-08-25T01:29:51;22.10;92.50
61807;DHT22;47726;52.766;6.606;2022-08-25T01:32:16;22.10;92.50
61807;DHT22;47726;52.766;6.606;2022-08-25T01:34:43;22.00;92.50
61807;DHT22;47726;52.766;6.606;2022-08-25T01:37:12;22.00;92.40
61807;DHT22;47726;52.766;6.606;2022-08-25T01:39:39;22.00;92.40
61807;DHT22;47726;52.766;6.606;2022-08-25T01:44:46;22.00;92.30
61807;DHT22;47726;52.766;6.606;2022-08-25T01:47:13;21.90;92.10
61807;DHT22;47726;52.766;6.606;2022-08-25T01:49:39;21.90;91.90
61807;DHT22;47726;52.766;6.606;2022-08-25T01:54:32;21.90;91.90
61807;DHT22;47726;52.766;6.606;2022-08-25T01:56:58;21.90;91.90
61807;DHT22;47726;52.766;6.606;2022-08-25T01:59:24;21.80;91.80
61807;DHT22;47726;52.766;6.606;2022-08-25T02:01:51;21.80;91.70
61807;DHT22;47726;52.766;6.606;2022-08-25T02:04:17;21.80;91.60
61807;DHT22;47726;52.766;6.606;2022-08-25T02:06:43;21.80;91.60
61807;DHT22;47726;52.766;6.606;2022-08-25T02:09:11;21.80;91.50
61807;DHT22;47726;52.766;6.606;2022-08-25T02:11:39;21.70;91.40
61807;DHT22;47726;52.766;6.606;2022-08-25T02:14:06;21.70;91.30
61807;DHT22;47726;52.766;6.606;2022-08-25T02:16:34;21.70;91.30
61807;DHT22;47726;52.766;6.606;2022-08-25T02:19:01;21.70;91.20
61807;DHT22;47726;52.766;6.606;2022-08-25T02:21:26;21.70;91.20
61807;DHT22;47726;52.766;6.606;2022-08-25T02:23:52;21.70;91.20
61807;DHT22;47726;52.766;6.606;2022-08-25T02:26:19;21.70;91.10
61807;DHT22;47726;52.766;6.606;2022-08-25T02:28:46;21.70;91.10
61807;DHT22;47726;52.766;6.606;2022-08-25T02:31:13;21.70;91.10
61807;DHT22;47726;52.766;6.606;2022-08-25T02:33:39;21.70;91.10
61807;DHT22;47726;52.766;6.606;2022-08-25T02:36:04;21.70;91.00
61807;DHT22;47726;52.766;6.606;2022-08-25T02:38:30;21.60;91.00
61807;DHT22;47726;52.766;6.606;2022-08-25T02:40:57;21.60;90.90
61807;DHT22;47726;52.766;6.606;2022-08-25T02:43:24;21.60;90.80
61807;DHT22;47726;52.766;6.606;2022-08-25T02:45:50;21.60;90.80
61807;DHT22;47726;52.766;6.606;2022-08-25T02:48:16;21.60;90.80
61807;DHT22;47726;52.766;6.606;2022-08-25T02:50:48;21.50;90.80
61807;DHT22;47726;52.766;6.606;2022-08-25T02:53:17;21.50;90.80
61807;DHT22;47726;52.766;6.606;2022-08-25T02:55:43;21.50;90.80
61807;DHT22;47726;52.766;6.606;2022-08-25T02:58:08;21.50;90.80
61807;DHT22;47726;52.766;6.606;2022-08-25T03:00:35;21.50;90.80
61807;DHT22;47726;52.766;6.606;2022-08-25T03:03:01;21.40;90.80
61807;DHT22;47726;52.766;6.606;2022-08-25T03:05:26;21.40;90.80
61807;DHT22;47726;52.766;6.606;2022-08-25T03:07:52;21.40;90.80
61807;DHT22;47726;52.766;6.606;2022-08-25T03:10:18;21.40;90.70
61807;DHT22;47726;52.766;6.606;2022-08-25T03:12:44;21.40;90.70
61807;DHT22;47726;52.766;6.606;2022-08-25T03:15:11;21.30;90.70
61807;DHT22;47726;52.766;6.606;2022-08-25T03:17:37;21.30;90.70
61807;DHT22;47726;52.766;6.606;2022-08-25T03:20:04;21.30;90.70
61807;DHT22;47726;52.766;6.606;2022-08-25T03:22:30;21.30;90.70
61807;DHT22;47726;52.766;6.606;2022-08-25T03:24:56;21.30;90.70
61807;DHT22;47726;52.766;6.606;2022-08-25T03:27:41;21.20;90.80
61807;DHT22;47726;52.766;6.606;2022-08-25T03:30:07;21.20;90.80
61807;DHT22;47726;52.766;6.606;2022-08-25T03:32:33;21.20;90.90
61807;DHT22;47726;52.766;6.606;2022-08-25T03:34:59;21.20;90.80
61807;DHT22;47726;52.766;6.606;2022-08-25T03:37:26;21.20;90.80
61807;DHT22;47726;52.766;6.606;2022-08-25T03:39:52;21.20;90.80
61807;DHT22;47726;52.766;6.606;2022-08-25T03:42:17;21.20;90.80
61807;DHT22;47726;52.766;6.606;2022-08-25T03:44:44;21.10;90.80
61807;DHT22;47726;52.766;6.606;2022-08-25T03:47:09;21.10;90.70
61807;DHT22;47726;52.766;6.606;2022-08-25T03:49:35;21.10;90.80
61807;DHT22;47726;52.766;6.606;2022-08-25T03:52:00;21.10;90.80
61807;DHT22;47726;52.766;6.606;2022-08-25T03:54:26;21.10;90.80
61807;DHT22;47726;52.766;6.606;2022-08-25T03:56:52;21.10;90.80
61807;DHT22;47726;52.766;6.606;2022-08-25T03:59:18;21.10;90.90
61807;DHT22;47726;52.766;6.606;2022-08-25T04:01:44;21.10;90.90
61807;DHT22;47726;52.766;6.606;2022-08-25T04:04:12;21.00;90.90
61807;DHT22;47726;52.766;6.606;2022-08-25T04:06:39;21.00;90.90
61807;DHT22;47726;52.766;6.606;2022-08-25T04:09:06;21.00;90.90
61807;DHT22;47726;52.766;6.606;2022-08-25T04:11:32;21.00;90.90
61807;DHT22;47726;52.766;6.606;2022-08-25T04:13:58;21.00;90.90
61807;DHT22;47726;52.766;6.606;2022-08-25T04:16:27;21.00;90.90
61807;DHT22;47726;52.766;6.606;2022-08-25T04:18:55;21.00;90.90
61807;DHT22;47726;52.766;6.606;2022-08-25T04:21:22;21.00;90.90
61807;DHT22;47726;52.766;6.606;2022-08-25T04:23:48;20.90;90.90
61807;DHT22;47726;52.766;6.606;2022-08-25T04:26:38;20.90;91.00
61807;DHT22;47726;52.766;6.606;2022-08-25T04:29:04;20.90;91.00
61807;DHT22;47726;52.766;6.606;2022-08-25T04:31:31;20.90;91.10
61807;DHT22;47726;52.766;6.606;2022-08-25T04:34:00;20.90;91.10
61807;DHT22;47726;52.766;6.606;2022-08-25T04:36:25;20.90;91.20
61807;DHT22;47726;52.766;6.606;2022-08-25T04:38:51;20.80;91.20
61807;DHT22;47726;52.766;6.606;2022-08-25T04:41:19;20.80;91.20
61807;DHT22;47726;52.766;6.606;2022-08-25T04:43:45;20.80;91.20
61807;DHT22;47726;52.766;6.606;2022-08-25T04:46:19;20.70;91.20
61807;DHT22;47726;52.766;6.606;2022-08-25T04:48:46;20.70;91.20
61807;DHT22;47726;52.766;6.606;2022-08-25T04:51:15;20.70;91.20
61807;DHT22;47726;52.766;6.606;2022-08-25T04:53:41;20.70;91.30
61807;DHT22;47726;52.766;6.606;2022-08-25T04:56:10;20.70;91.30
61807;DHT22;47726;52.766;6.606;2022-08-25T04:58:36;20.70;91.40
61807;DHT22;47726;52.766;6.606;2022-08-25T05:01:07;20.60;91.40
61807;DHT22;47726;52.766;6.606;2022-08-25T05:03:33;20.60;91.50
61807;DHT22;47726;52.766;6.606;2022-08-25T05:05:59;20.70;91.50
61807;DHT22;47726;52.766;6.606;2022-08-25T05:08:25;20.60;91.50
61807;DHT22;47726;52.766;6.606;2022-08-25T05:10:51;20.60;91.60
61807;DHT22;47726;52.766;6.606;2022-08-25T05:13:19;20.70;91.70
61807;DHT22;47726;52.766;6.606;2022-08-25T05:15:51;20.70;91.70
61807;DHT22;47726;52.766;6.606;2022-08-25T05:18:18;20.70;91.60
61807;DHT22;47726;52.766;6.606;2022-08-25T05:20:44;20.70;91.60
61807;DHT22;47726;52.766;6.606;2022-08-25T05:23:10;20.70;91.60
61807;DHT22;47726;52.766;6.606;2022-08-25T05:25:35;20.70;91.60
61807;DHT22;47726;52.766;6.606;2022-08-25T05:28:01;20.70;91.70
61807;DHT22;47726;52.766;6.606;2022-08-25T05:30:27;20.70;91.70
61807;DHT22;47726;52.766;6.606;2022-08-25T05:32:52;20.70;91.70
61807;DHT22;47726;52.766;6.606;2022-08-25T05:35:18;20.70;91.70
61807;DHT22;47726;52.766;6.606;2022-08-25T05:37:45;20.80;91.70
61807;DHT22;47726;52.766;6.606;2022-08-25T05:40:11;20.80;91.80
61807;DHT22;47726;52.766;6.606;2022-08-25T05:42:37;20.70;91.80
61807;DHT22;47726;52.766;6.606;2022-08-25T05:45:04;20.80;91.90
61807;DHT22;47726;52.766;6.606;2022-08-25T05:47:29;20.70;91.90
61807;DHT22;47726;52.766;6.606;2022-08-25T05:49:55;20.80;91.90
61807;DHT22;47726;52.766;6.606;2022-08-25T05:52:21;20.80;92.00
61807;DHT22;47726;52.766;6.606;2022-08-25T05:54:46;20.90;92.00
61807;DHT22;47726;52.766;6.606;2022-08-25T05:57:12;21.00;92.10
61807;DHT22;47726;52.766;6.606;2022-08-25T05:59:37;21.10;92.10
61807;DHT22;47726;52.766;6.606;2022-08-25T06:02:03;21.20;92.10
61807;DHT22;47726;52.766;6.606;2022-08-25T06:04:47;21.30;92.20
61807;DHT22;47726;52.766;6.606;2022-08-25T06:07:12;21.50;92.10
61807;DHT22;47726;52.766;6.606;2022-08-25T06:09:39;21.60;92.00
61807;DHT22;47726;52.766;6.606;2022-08-25T06:12:06;21.80;91.90
61807;DHT22;47726;52.766;6.606;2022-08-25T06:14:32;21.90;91.80
61807;DHT22;47726;52.766;6.606;2022-08-25T06:16:58;22.10;91.70
61807;DHT22;47726;52.766;6.606;2022-08-25T06:19:25;22.30;91.60
61807;DHT22;47726;52.766;6.606;2022-08-25T06:21:55;22.50;91.40
61807;DHT22;47726;52.766;6.606;2022-08-25T06:24:22;22.70;91.20
61807;DHT22;47726;52.766;6.606;2022-08-25T06:26:48;22.90;91.10
61807;DHT22;47726;52.766;6.606;2022-08-25T06:29:13;23.10;90.90
61807;DHT22;47726;52.766;6.606;2022-08-25T06:31:39;23.20;90.80
61807;DHT22;47726;52.766;6.606;2022-08-25T06:34:06;23.40;90.70
61807;DHT22;47726;52.766;6.606;2022-08-25T06:36:32;23.60;90.70
61807;DHT22;47726;52.766;6.606;2022-08-25T06:38:59;23.80;90.40
61807;DHT22;47726;52.766;6.606;2022-08-25T06:41:25;23.90;90.10
61807;DHT22;47726;52.766;6.606;2022-08-25T06:43:50;24.10;90.00
61807;DHT22;47726;52.766;6.606;2022-08-25T06:46:19;24.30;89.70
61807;DHT22;47726;52.766;6.606;2022-08-25T06:48:47;24.30;89.40
61807;DHT22;47726;52.766;6.606;2022-08-25T06:51:15;24.50;89.10
61807;DHT22;47726;52.766;6.606;2022-08-25T06:53:42;24.60;88.70
61807;DHT22;47726;52.766;6.606;2022-08-25T06:56:09;24.70;88.60
61807;DHT22;47726;52.766;6.606;2022-08-25T06:58:35;24.80;88.50
61807;DHT22;47726;52.766;6.606;2022-08-25T07:01:20;25.00;88.30
61807;DHT22;47726;52.766;6.606;2022-08-25T07:03:48;25.20;87.80
61807;DHT22;47726;52.766;6.606;2022-08-25T07:06:15;25.30;87.50
61807;DHT22;47726;52.766;6.606;2022-08-25T07:08:41;25.50;87.20
61807;DHT22;47726;52.766;6.606;2022-08-25T07:11:08;25.60;86.80
61807;DHT22;47726;52.766;6.606;2022-08-25T07:13:35;25.80;86.60
61807;DHT22;47726;52.766;6.606;2022-08-25T07:16:01;25.90;86.50
61807;DHT22;47726;52.766;6.606;2022-08-25T07:18:27;26.10;86.20
61807;DHT22;47726;52.766;6.606;2022-08-25T07:20:54;26.30;86.60
61807;DHT22;47726;52.766;6.606;2022-08-25T07:23:22;26.40;85.00
61807;DHT22;47726;52.766;6.606;2022-08-25T07:25:48;26.60;84.70
61807;DHT22;47726;52.766;6.606;2022-08-25T07:28:15;26.70;84.40
61807;DHT22;47726;52.766;6.606;2022-08-25T07:30:40;26.80;84.10
61807;DHT22;47726;52.766;6.606;2022-08-25T07:33:06;27.00;83.40
61807;DHT22;47726;52.766;6.606;2022-08-25T07:35:32;27.10;82.90
61807;DHT22;47726;52.766;6.606;2022-08-25T07:37:58;27.20;82.80
61807;DHT22;47726;52.766;6.606;2022-08-25T07:40:32;27.40;82.30
61807;DHT22;47726;52.766;6.606;2022-08-25T07:43:00;27.50;81.50
61807;DHT22;47726;52.766;6.606;2022-08-25T07:45:29;27.60;81.20
61807;DHT22;47726;52.766;6.606;2022-08-25T07:48:10;27.70;80.60
61807;DHT22;47726;52.766;6.606;2022-08-25T07:50:39;27.70;80.20
61807;DHT22;47726;52.766;6.606;2022-08-25T07:53:07;27.90;80.70
61807;DHT22;47726;52.766;6.606;2022-08-25T07:55:33;28.00;80.10
61807;DHT22;47726;52.766;6.606;2022-08-25T07:58:02;28.20;80.00
61807;DHT22;47726;52.766;6.606;2022-08-25T08:00:28;28.40;79.90
61807;DHT22;47726;52.766;6.606;2022-08-25T08:02:56;28.50;79.90
61807;DHT22;47726;52.766;6.606;2022-08-25T08:05:23;28.60;79.20
61807;DHT22;47726;52.766;6.606;2022-08-25T08:07:48;28.80;79.40
61807;DHT22;47726;52.766;6.606;2022-08-25T08:10:15;28.90;78.20
61807;DHT22;47726;52.766;6.606;2022-08-25T08:12:40;29.00;78.10
61807;DHT22;47726;52.766;6.606;2022-08-25T08:15:07;29.10;77.70
61807;DHT22;47726;52.766;6.606;2022-08-25T08:17:33;29.30;77.60
61807;DHT22;47726;52.766;6.606;2022-08-25T08:19:59;29.40;77.10
61807;DHT22;47726;52.766;6.606;2022-08-25T08:22:25;29.50;76.30
61807;DHT22;47726;52.766;6.606;2022-08-25T08:24:50;29.50;75.80
61807;DHT22;47726;52.766;6.606;2022-08-25T08:27:16;29.50;75.50
61807;DHT22;47726;52.766;6.606;2022-08-25T08:29:41;29.50;75.30
61807;DHT22;47726;52.766;6.606;2022-08-25T08:32:09;29.60;75.60
61807;DHT22;47726;52.766;6.606;2022-08-25T08:34:38;29.70;75.70
61807;DHT22;47726;52.766;6.606;2022-08-25T08:37:05;29.80;75.80
61807;DHT22;47726;52.766;6.606;2022-08-25T08:39:31;30.00;75.40
61807;DHT22;47726;52.766;6.606;2022-08-25T08:44:53;30.30;74.50
61807;DHT22;47726;52.766;6.606;2022-08-25T08:52:53;30.60;72.00
61807;DHT22;47726;52.766;6.606;2022-08-25T08:57:50;30.70;72.10
61807;DHT22;47726;52.766;6.606;2022-08-25T09:00:17;30.80;72.50
61807;DHT22;47726;52.766;6.606;2022-08-25T09:03:15;30.90;71.80
61807;DHT22;47726;52.766;6.606;2022-08-25T09:05:50;31.10;70.60
61807;DHT22;47726;52.766;6.606;2022-08-25T09:08:17;31.20;70.70
61807;DHT22;47726;52.766;6.606;2022-08-25T09:11:07;31.30;70.10
61807;DHT22;47726;52.766;6.606;2022-08-25T09:16:31;31.50;68.10
61807;DHT22;47726;52.766;6.606;2022-08-25T09:22:05;31.60;67.10
61807;DHT22;47726;52.766;6.606;2022-08-25T09:24:58;31.70;65.60
61807;DHT22;47726;52.766;6.606;2022-08-25T09:30:20;31.90;65.10
61807;DHT22;47726;52.766;6.606;2022-08-25T09:32:50;32.00;66.10
61807;DHT22;47726;52.766;6.606;2022-08-25T09:35:27;32.00;64.40
61807;DHT22;47726;52.766;6.606;2022-08-25T09:37:58;32.20;63.80
61807;DHT22;47726;52.766;6.606;2022-08-25T09:40:25;32.20;64.30
61807;DHT22;47726;52.766;6.606;2022-08-25T09:42:54;32.30;63.30
61807;DHT22;47726;52.766;6.606;2022-08-25T09:45:38;32.40;63.10
61807;DHT22;47726;52.766;6.606;2022-08-25T09:48:31;32.50;61.60
61807;DHT22;47726;52.766;6.606;2022-08-25T09:53:48;32.50;59.00
61807;DHT22;47726;52.766;6.606;2022-08-25T09:56:18;32.60;61.30
61807;DHT22;47726;52.766;6.606;2022-08-25T09:58:45;32.70;61.20
61807;DHT22;47726;52.766;6.606;2022-08-25T10:01:17;32.80;61.20
61807;DHT22;47726;52.766;6.606;2022-08-25T10:03:58;32.90;59.60
61807;DHT22;47726;52.766;6.606;2022-08-25T10:06:27;32.90;59.40
61807;DHT22;47726;52.766;6.606;2022-08-25T10:08:57;32.90;59.10
61807;DHT22;47726;52.766;6.606;2022-08-25T10:11:39;32.90;58.70
61807;DHT22;47726;52.766;6.606;2022-08-25T10:16:50;33.10;58.20
61807;DHT22;47726;52.766;6.606;2022-08-25T10:22:02;33.10;56.90
61807;DHT22;47726;52.766;6.606;2022-08-25T10:24:28;33.10;56.00
61807;DHT22;47726;52.766;6.606;2022-08-25T10:27:21;33.00;57.60
61807;DHT22;47726;52.766;6.606;2022-08-25T10:54:23;33.10;54.30
61807;DHT22;47726;52.766;6.606;2022-08-25T10:57:47;33.10;53.10
61807;DHT22;47726;52.766;6.606;2022-08-25T10:59:56;33.20;53.60
61807;DHT22;47726;52.766;6.606;2022-08-25T11:05:10;33.20;54.50
61807;DHT22;47726;52.766;6.606;2022-08-25T11:07:41;33.30;54.00
61807;DHT22;47726;52.766;6.606;2022-08-25T11:10:19;33.40;53.50
61807;DHT22;47726;52.766;6.606;2022-08-25T11:12:56;33.40;50.30
61807;DHT22;47726;52.766;6.606;2022-08-25T11:15:51;33.30;51.10
61807;DHT22;47726;52.766;6.606;2022-08-25T11:18:17;33.30;49.90
61807;DHT22;47726;52.766;6.606;2022-08-25T11:20:45;33.30;51.30
61807;DHT22;47726;52.766;6.606;2022-08-25T11:23:23;33.30;50.70
61807;DHT22;47726;52.766;6.606;2022-08-25T11:25:53;33.20;51.80
61807;DHT22;47726;52.766;6.606;2022-08-25T11:28:31;33.20;50.70
61807;DHT22;47726;52.766;6.606;2022-08-25T11:31:00;33.30;50.60
61807;DHT22;47726;52.766;6.606;2022-08-25T11:33:28;33.30;49.90
61807;DHT22;47726;52.766;6.606;2022-08-25T11:36:08;33.30;50.50
61807;DHT22;47726;52.766;6.606;2022-08-25T11:38:59;33.40;50.40
61807;DHT22;47726;52.766;6.606;2022-08-25T11:44:31;33.50;51.30
61807;DHT22;47726;52.766;6.606;2022-08-25T11:49:57;33.60;50.90
61807;DHT22;47726;52.766;6.606;2022-08-25T11:55:10;33.70;50.00
61807;DHT22;47726;52.766;6.606;2022-08-25T11:57:37;33.70;49.90
61807;DHT22;47726;52.766;6.606;2022-08-25T12:02:45;33.70;49.60
61807;DHT22;47726;52.766;6.606;2022-08-25T12:10:23;33.80;51.10
61807;DHT22;47726;52.766;6.606;2022-08-25T12:12:56;33.80;50.10
61807;DHT22;47726;52.766;6.606;2022-08-25T12:15:32;33.80;49.20
61807;DHT22;47726;52.766;6.606;2022-08-25T12:18:38;33.80;48.00
61807;DHT22;47726;52.766;6.606;2022-08-25T12:23:37;33.70;48.60
61807;DHT22;47726;52.766;6.606;2022-08-25T12:29:14;33.70;48.80
61807;DHT22;47726;52.766;6.606;2022-08-25T12:34:45;33.70;48.80
61807;DHT22;47726;52.766;6.606;2022-08-25T12:37:17;33.70;47.20
61807;DHT22;47726;52.766;6.606;2022-08-25T12:42:37;33.50;48.20
61807;DHT22;47726;52.766;6.606;2022-08-25T12:47:50;33.60;49.20
61807;DHT22;47726;52.766;6.606;2022-08-25T12:50:38;33.60;48.00
61807;DHT22;47726;52.766;6.606;2022-08-25T12:53:11;33.60;48.70
61807;DHT22;47726;52.766;6.606;2022-08-25T12:55:43;33.60;49.60
61807;DHT22;47726;52.766;6.606;2022-08-25T12:58:10;33.60;48.80
61807;DHT22;47726;52.766;6.606;2022-08-25T13:01:03;33.70;49.60
61807;DHT22;47726;52.766;6.606;2022-08-25T13:03:45;33.80;48.00
61807;DHT22;47726;52.766;6.606;2022-08-25T13:06:35;33.70;46.40
61807;DHT22;47726;52.766;6.606;2022-08-25T13:12:21;33.50;46.40
61807;DHT22;47726;52.766;6.606;2022-08-25T13:14:54;33.50;46.80
61807;DHT22;47726;52.766;6.606;2022-08-25T13:17:29;33.60;47.80
61807;DHT22;47726;52.766;6.606;2022-08-25T13:20:16;33.60;48.40
61807;DHT22;47726;52.766;6.606;2022-08-25T13:22:45;33.60;49.20
61807;DHT22;47726;52.766;6.606;2022-08-25T13:25:17;33.60;49.20
61807;DHT22;47726;52.766;6.606;2022-08-25T13:27:50;33.60;47.30
61807;DHT22;47726;52.766;6.606;2022-08-25T13:30:37;33.60;46.40
61807;DHT22;47726;52.766;6.606;2022-08-25T13:33:18;33.50;46.20
61807;DHT22;47726;52.766;6.606;2022-08-25T13:35:53;33.50;46.20
61807;DHT22;47726;52.766;6.606;2022-08-25T13:38:37;33.50;46.40
61807;DHT22;47726;52.766;6.606;2022-08-25T13:41:04;33.60;47.30
61807;DHT22;47726;52.766;6.606;2022-08-25T13:43:30;33.60;47.40
61807;DHT22;47726;52.766;6.606;2022-08-25T13:45:56;33.60;47.00
61807;DHT22;47726;52.766;6.606;2022-08-25T13:48:36;33.60;46.90
61807;DHT22;47726;52.766;6.606;2022-08-25T13:51:19;33.60;46.60
61807;DHT22;47726;52.766;6.606;2022-08-25T13:53:53;33.70;46.30
61807;DHT22;47726;52.766;6.606;2022-08-25T13:58:53;33.70;47.70
61807;DHT22;47726;52.766;6.606;2022-08-25T14:01:25;33.60;46.20
61807;DHT22;47726;52.766;6.606;2022-08-25T14:03:53;33.60;46.00
61807;DHT22;47726;52.766;6.606;2022-08-25T14:06:23;33.60;47.00
61807;DHT22;47726;52.766;6.606;2022-08-25T14:11:39;33.60;46.40
61807;DHT22;47726;52.766;6.606;2022-08-25T14:14:32;33.60;46.40
61807;DHT22;47726;52.766;6.606;2022-08-25T14:17:08;33.50;46.90
61807;DHT22;47726;52.766;6.606;2022-08-25T14:19:41;33.50;45.70
61807;DHT22;47726;52.766;6.606;2022-08-25T14:22:08;33.50;46.00
61807;DHT22;47726;52.766;6.606;2022-08-25T14:24:34;33.50;46.40
61807;DHT22;47726;52.766;6.606;2022-08-25T14:27:01;33.40;46.10
61807;DHT22;47726;52.766;6.606;2022-08-25T14:29:27;33.40;46.20
61807;DHT22;47726;52.766;6.606;2022-08-25T14:31:54;33.40;46.70
61807;DHT22;47726;52.766;6.606;2022-08-25T14:34:26;33.50;46.60
61807;DHT22;47726;52.766;6.606;2022-08-25T14:36:53;33.40;45.90
61807;DHT22;47726;52.766;6.606;2022-08-25T14:39:19;33.40;46.50
61807;DHT22;47726;52.766;6.606;2022-08-25T14:41:45;33.30;46.70
61807;DHT22;47726;52.766;6.606;2022-08-25T14:44:12;33.30;46.90
61807;DHT22;47726;52.766;6.606;2022-08-25T14:46:46;33.30;47.30
61807;DHT22;47726;52.766;6.606;2022-08-25T14:49:18;33.30;47.30
61807;DHT22;47726;52.766;6.606;2022-08-25T14:51:45;33.40;48.30
61807;DHT22;47726;52.766;6.606;2022-08-25T14:54:12;33.40;47.60
61807;DHT22;47726;52.766;6.606;2022-08-25T14:56:39;33.40;48.10
61807;DHT22;47726;52.766;6.606;2022-08-25T14:59:06;33.40;48.30
61807;DHT22;47726;52.766;6.606;2022-08-25T15:01:31;33.40;48.40
61807;DHT22;47726;52.766;6.606;2022-08-25T15:04:04;33.40;48.60
61807;DHT22;47726;52.766;6.606;2022-08-25T15:06:33;33.40;48.50
61807;DHT22;47726;52.766;6.606;2022-08-25T15:08:59;33.40;48.70
61807;DHT22;47726;52.766;6.606;2022-08-25T15:11:46;33.30;48.90
61807;DHT22;47726;52.766;6.606;2022-08-25T15:14:13;33.30;48.60
61807;DHT22;47726;52.766;6.606;2022-08-25T15:16:48;33.20;48.90
61807;DHT22;47726;52.766;6.606;2022-08-25T15:19:17;33.20;49.20
61807;DHT22;47726;52.766;6.606;2022-08-25T15:21:44;33.20;49.60
61807;DHT22;47726;52.766;6.606;2022-08-25T15:24:10;33.10;49.80
61807;DHT22;47726;52.766;6.606;2022-08-25T15:26:58;33.10;50.10
61807;DHT22;47726;52.766;6.606;2022-08-25T15:29:25;33.00;49.90
61807;DHT22;47726;52.766;6.606;2022-08-25T15:31:53;33.10;50.00
61807;DHT22;47726;52.766;6.606;2022-08-25T15:34:19;33.00;50.20
61807;DHT22;47726;52.766;6.606;2022-08-25T15:36:45;32.90;50.10
61807;DHT22;47726;52.766;6.606;2022-08-25T15:39:12;32.90;50.20
61807;DHT22;47726;52.766;6.606;2022-08-25T15:41:38;32.90;50.20
61807;DHT22;47726;52.766;6.606;2022-08-25T15:44:04;32.80;50.40
61807;DHT22;47726;52.766;6.606;2022-08-25T15:46:32;32.80;50.20
61807;DHT22;47726;52.766;6.606;2022-08-25T15:48:58;32.70;50.40
61807;DHT22;47726;52.766;6.606;2022-08-25T15:51:26;32.70;50.60
61807;DHT22;47726;52.766;6.606;2022-08-25T15:53:52;32.70;50.90
61807;DHT22;47726;52.766;6.606;2022-08-25T15:56:18;32.70;50.80
61807;DHT22;47726;52.766;6.606;2022-08-25T15:58:44;32.60;50.90
61807;DHT22;47726;52.766;6.606;2022-08-25T16:01:17;32.60;51.00
61807;DHT22;47726;52.766;6.606;2022-08-25T16:03:43;32.60;51.30
61807;DHT22;47726;52.766;6.606;2022-08-25T16:06:09;32.60;51.30
61807;DHT22;47726;52.766;6.606;2022-08-25T16:08:35;32.50;50.90
61807;DHT22;47726;52.766;6.606;2022-08-25T16:11:02;32.40;51.30
61807;DHT22;47726;52.766;6.606;2022-08-25T16:13:28;32.30;51.60
61807;DHT22;47726;52.766;6.606;2022-08-25T16:15:54;32.40;51.80
61807;DHT22;47726;52.766;6.606;2022-08-25T16:18:21;32.30;51.70
61807;DHT22;47726;52.766;6.606;2022-08-25T16:20:48;32.30;51.90
61807;DHT22;47726;52.766;6.606;2022-08-25T16:23:16;32.30;52.00
61807;DHT22;47726;52.766;6.606;2022-08-25T16:25:43;32.20;52.10
61807;DHT22;47726;52.766;6.606;2022-08-25T16:28:11;32.20;52.20
61807;DHT22;47726;52.766;6.606;2022-08-25T16:30:37;32.10;52.00
61807;DHT22;47726;52.766;6.606;2022-08-25T16:33:05;32.10;51.70
61807;DHT22;47726;52.766;6.606;2022-08-25T16:35:31;32.00;51.80
61807;DHT22;47726;52.766;6.606;2022-08-25T16:37:57;32.00;52.10
61807;DHT22;47726;52.766;6.606;2022-08-25T16:40:22;32.00;51.90
61807;DHT22;47726;52.766;6.606;2022-08-25T16:42:51;31.90;51.90
61807;DHT22;47726;52.766;6.606;2022-08-25T16:45:17;31.90;52.00
61807;DHT22;47726;52.766;6.606;2022-08-25T16:47:43;31.80;52.40
61807;DHT22;47726;52.766;6.606;2022-08-25T16:50:09;31.80;52.70
61807;DHT22;47726;52.766;6.606;2022-08-25T16:52:35;31.80;53.00
61807;DHT22;47726;52.766;6.606;2022-08-25T16:55:19;31.70;52.90
61807;DHT22;47726;52.766;6.606;2022-08-25T16:57:47;31.70;52.90
61807;DHT22;47726;52.766;6.606;2022-08-25T17:00:17;31.70;53.10
61807;DHT22;47726;52.766;6.606;2022-08-25T17:02:43;31.70;53.30
61807;DHT22;47726;52.766;6.606;2022-08-25T17:05:09;31.70;53.20
61807;DHT22;47726;52.766;6.606;2022-08-25T17:07:36;31.60;53.30
61807;DHT22;47726;52.766;6.606;2022-08-25T17:10:03;31.60;53.60
61807;DHT22;47726;52.766;6.606;2022-08-25T17:12:29;31.60;53.60
61807;DHT22;47726;52.766;6.606;2022-08-25T17:14:54;31.60;53.70
61807;DHT22;47726;52.766;6.606;2022-08-25T17:17:20;31.60;53.80
61807;DHT22;47726;52.766;6.606;2022-08-25T17:19:46;31.60;53.90
61807;DHT22;47726;52.766;6.606;2022-08-25T17:22:11;31.50;53.90
61807;DHT22;47726;52.766;6.606;2022-08-25T17:24:41;31.50;53.90